Time;durP1;ratioP1;P1;durP2;ratioP2;P2;SDS_P1;SDS_P2;PMS_P1;PMS_P2;Temp;Humidity;BMP_temperature;BMP_pressure;BME280_temperature;BME280_humidity;BME280_pressure;Samples;Min_cycle;Max_cycle;Signal;HPM_P1;HPM_P2
2022/12/03 00:01:43;;;;;;;33.53;20.80;;;6.90;99.90;;;;;;5053633;28;20024;-52
2022/12/03 00:04:08;;;;;;;30.13;20.02;;;6.80;99.90;;;;;;5054120;28;20551;-55
2022/12/03 00:06:34;;;;;;;30.80;19.80;;;6.80;99.90;;;;;;5054374;28;20036;-56
2022/12/03 00:09:00;;;;;;;30.55;19.02;;;6.80;99.90;;;;;;5054253;28;20040;-57
2022/12/03 00:11:25;;;;;;;26.05;18.00;;;6.90;99.90;;;;;;5054434;28;20025;-59
2022/12/03 00:13:51;;;;;;;25.80;18.05;;;6.90;99.90;;;;;;5053210;28;20112;-57
2022/12/03 00:16:17;;;;;;;28.95;18.73;;;7.00;99.90;;;;;;5019183;28;20037;-56
2022/12/03 00:18:43;;;;;;;31.42;19.73;;;7.00;99.90;;;;;;5054408;28;20112;-57
2022/12/03 00:21:08;;;;;;;32.28;20.95;;;7.00;99.90;;;;;;5002706;28;20037;-58
2022/12/03 00:23:34;;;;;;;27.88;17.98;;;6.90;99.90;;;;;;5002734;28;20044;-61
2022/12/03 00:26:00;;;;;;;26.67;18.60;;;6.70;99.90;;;;;;5053677;28;20075;-56
2022/12/03 00:28:25;;;;;;;26.13;17.90;;;6.50;99.90;;;;;;5054191;28;20029;-61
2022/12/03 00:30:54;;;;;;;42.38;26.05;;;6.50;99.90;;;;;;5018826;28;20037;-56
2022/12/03 00:33:20;;;;;;;37.03;23.20;;;6.60;99.90;;;;;;5018880;28;20037;-57
2022/12/03 00:35:46;;;;;;;33.53;22.58;;;6.70;99.90;;;;;;5053549;28;20029;-58
2022/12/03 00:38:12;;;;;;;30.15;20.50;;;6.80;99.90;;;;;;5053626;28;20079;-60
2022/12/03 00:40:38;;;;;;;39.00;22.88;;;6.80;99.90;;;;;;5053973;28;20124;-58
2022/12/03 00:43:04;;;;;;;33.15;20.60;;;6.80;99.90;;;;;;5053825;28;20117;-61
2022/12/03 00:45:30;;;;;;;31.63;22.05;;;6.80;99.90;;;;;;5053849;28;20079;-57
2022/12/03 00:47:56;;;;;;;33.75;21.38;;;6.90;99.90;;;;;;5053189;28;20512;-61
2022/12/03 00:50:22;;;;;;;33.33;22.08;;;6.90;99.90;;;;;;5018599;28;20084;-59
2022/12/03 00:52:48;;;;;;;32.38;21.77;;;6.80;99.90;;;;;;5053353;28;20048;-57
2022/12/03 00:55:14;;;;;;;34.28;22.65;;;6.90;99.90;;;;;;5053299;28;20447;-53
2022/12/03 00:57:41;;;;;;;36.20;23.10;;;6.90;99.90;;;;;;5053235;28;20028;-56
2022/12/03 01:00:07;;;;;;;38.42;24.52;;;6.90;99.90;;;;;;5053225;28;20044;-56
2022/12/03 01:02:33;;;;;;;53.67;33.13;;;6.80;99.90;;;;;;5002329;28;20037;-54
2022/12/03 01:04:59;;;;;;;63.70;41.60;;;6.90;99.90;;;;;;5053275;28;20036;-56
2022/12/03 01:07:24;;;;;;;56.30;36.75;;;6.90;99.90;;;;;;5055895;28;20021;-62
2022/12/03 01:09:50;;;;;;;65.80;39.70;;;6.90;99.90;;;;;;5055381;28;20025;-58
2022/12/03 01:12:16;;;;;;;61.40;40.58;;;6.90;99.90;;;;;;5055434;28;20029;-63
2022/12/03 01:14:41;;;;;;;63.63;38.92;;;6.90;99.90;;;;;;5053627;28;20025;-57
2022/12/03 01:17:07;;;;;;;53.30;35.15;;;7.00;99.90;;;;;;5053252;28;20490;-53
2022/12/03 01:19:34;;;;;;;55.20;35.15;;;6.90;99.90;;;;;;5053107;28;20108;-59
2022/12/03 01:22:01;;;;;;;53.78;35.33;;;6.80;99.90;;;;;;5052906;28;20037;-56
2022/12/03 01:24:27;;;;;;;53.20;37.38;;;6.90;99.90;;;;;;5052797;28;20144;-53
2022/12/03 01:26:54;;;;;;;55.40;35.67;;;6.90;99.90;;;;;;5052929;28;20052;-59
2022/12/03 01:29:20;;;;;;;55.05;38.40;;;6.80;99.90;;;;;;5052764;28;20486;-55
2022/12/03 01:34:30;;;;;;;53.63;35.17;;;6.80;99.90;;;;;;5053081;28;20369;-55
2022/12/03 01:36:56;;;;;;;56.95;36.92;;;6.70;99.90;;;;;;5052816;28;20029;-58
2022/12/03 01:39:22;;;;;;;66.75;40.15;;;6.50;99.90;;;;;;5053204;28;20032;-55
2022/12/03 01:41:50;;;;;;;61.47;37.92;;;6.50;99.90;;;;;;5052726;28;20025;-59
2022/12/03 01:44:30;;;;;;;56.85;35.78;;;6.40;99.90;;;;;;5017970;28;20132;-59
2022/12/03 01:46:59;;;;;;;50.42;32.47;;;6.30;99.90;;;;;;5052966;28;20025;-61
2022/12/03 01:49:35;;;;;;;49.17;32.03;;;6.40;99.90;;;;;;5052710;28;20053;-61
2022/12/03 01:52:01;;;;;;;53.08;32.53;;;6.50;99.90;;;;;;5052619;28;20469;-57
2022/12/03 01:54:40;;;;;;;51.17;32.08;;;6.60;99.90;;;;;;5052598;28;20072;-58
2022/12/03 01:57:24;;;;;;;48.35;32.70;;;6.60;99.90;;;;;;5001374;28;20477;-62
2022/12/03 01:59:51;;;;;;;43.70;29.33;;;6.40;99.90;;;;;;5052517;28;20469;-56
2022/12/03 02:02:21;;;;;;;50.05;30.67;;;6.40;99.90;;;;;;5052499;28;20478;-57
2022/12/03 02:04:48;;;;;;;46.53;30.35;;;6.40;99.90;;;;;;5017703;28;20029;-59
2022/12/03 02:07:23;;;;;;;65.30;36.20;;;6.30;99.90;;;;;;5052814;28;20033;-54
2022/12/03 02:09:49;;;;;;;58.85;39.00;;;6.40;99.90;;;;;;5052585;28;20032;-56
2022/12/03 02:12:18;;;;;;;57.35;33.75;;;6.40;99.90;;;;;;5052831;28;20477;-60
2022/12/03 02:14:44;;;;;;;50.80;32.42;;;6.40;99.90;;;;;;4991051;28;20046;-60
2022/12/03 02:17:11;;;;;;;52.38;32.45;;;6.40;99.90;;;;;;4995014;28;20048;-57
2022/12/03 02:19:37;;;;;;;54.42;34.92;;;6.40;99.90;;;;;;4994321;28;20234;-52
2022/12/03 02:22:23;;;;;;;51.40;34.42;;;6.40;99.90;;;;;;4994748;28;20117;-62
2022/12/03 02:24:49;;;;;;;45.45;29.85;;;6.40;99.90;;;;;;4994709;28;20169;-59
2022/12/03 02:27:15;;;;;;;42.17;28.58;;;6.40;99.90;;;;;;4962349;28;20122;-60
2022/12/03 02:29:40;;;;;;;49.28;32.08;;;6.40;99.90;;;;;;4994524;28;20038;-58
2022/12/03 02:32:06;;;;;;;51.55;33.10;;;6.10;99.90;;;;;;4994670;28;20041;-56
2022/12/03 02:34:40;;;;;;;47.95;29.92;;;6.10;99.90;;;;;;4994618;28;20041;-59
2022/12/03 02:37:13;;;;;;;44.45;29.80;;;6.20;99.90;;;;;;4994640;28;20030;-56
2022/12/03 02:39:45;;;;;;;42.97;28.35;;;6.10;99.90;;;;;;4994424;28;20117;-56
2022/12/03 02:44:57;;;;;;;36.83;25.33;;;5.80;99.90;;;;;;5005185;28;20056;-57
2022/12/03 02:47:23;;;;;;;36.55;24.50;;;5.90;99.90;;;;;;5055707;28;20033;-59
2022/12/03 02:49:50;;;;;;;41.53;26.65;;;6.00;99.90;;;;;;5055426;28;20045;-58
2022/12/03 02:52:16;;;;;;;34.53;23.55;;;5.90;99.90;;;;;;5055908;28;20048;-54
2022/12/03 02:54:42;;;;;;;32.80;22.48;;;6.00;99.90;;;;;;5056006;28;20032;-59
2022/12/03 02:57:08;;;;;;;35.22;23.38;;;6.10;99.90;;;;;;5055671;28;20496;-54
2022/12/03 02:59:34;;;;;;;37.58;23.90;;;6.10;99.90;;;;;;5055549;28;20029;-57
2022/12/03 03:02:00;;;;;;;35.05;24.70;;;6.20;99.90;;;;;;5055570;28;20037;-54
2022/12/03 03:04:26;;;;;;;34.60;23.45;;;6.20;99.90;;;;;;5055325;28;20094;-54
2022/12/03 03:06:52;;;;;;;33.17;21.40;;;6.20;99.90;;;;;;5052091;28;20116;-58
2022/12/03 03:09:19;;;;;;;35.20;24.45;;;6.20;99.90;;;;;;5055730;28;20033;-55
2022/12/03 03:11:44;;;;;;;35.45;24.80;;;6.30;99.90;;;;;;5055468;28;20036;-59
2022/12/03 03:14:10;;;;;;;32.42;23.17;;;6.30;99.90;;;;;;5055353;28;20404;-59
2022/12/03 03:16:36;;;;;;;31.75;21.85;;;6.20;99.90;;;;;;5055332;28;20082;-58
2022/12/03 03:19:02;;;;;;;34.05;22.77;;;6.30;99.90;;;;;;5055642;28;20025;-58
2022/12/03 03:21:27;;;;;;;33.45;21.40;;;6.30;99.90;;;;;;5055259;28;20029;-59
2022/12/03 03:23:53;;;;;;;31.90;21.05;;;6.30;99.90;;;;;;5055050;28;20052;-56
2022/12/03 03:26:19;;;;;;;33.40;22.92;;;6.20;99.90;;;;;;5054909;28;20033;-57
2022/12/03 03:28:49;;;;;;;34.28;22.17;;;6.00;99.90;;;;;;5055241;28;20025;-58
2022/12/03 03:31:17;;;;;;;35.30;22.65;;;5.60;99.90;;;;;;5055094;28;20036;-52
2022/12/03 03:33:46;;;;;;;35.92;24.83;;;5.60;99.90;;;;;;5055474;28;20064;-60
2022/12/03 03:36:14;;;;;;;29.83;21.33;;;5.50;99.90;;;;;;5054882;28;20481;-56
2022/12/03 03:38:40;;;;;;;31.75;21.38;;;5.60;99.90;;;;;;5054896;28;20035;-58
2022/12/03 03:41:08;;;;;;;31.55;21.73;;;5.50;99.90;;;;;;5019880;28;20033;-59
2022/12/03 03:43:35;;;;;;;31.70;21.92;;;5.60;99.90;;;;;;5054992;28;20041;-62
2022/12/03 03:46:03;;;;;;;33.45;22.70;;;5.80;99.90;;;;;;5054564;28;20033;-56
2022/12/03 03:48:29;;;;;;;33.35;23.13;;;5.80;99.90;;;;;;5054532;28;20045;-57
2022/12/03 03:50:55;;;;;;;36.75;22.50;;;5.90;99.90;;;;;;5055004;28;20382;-54
2022/12/03 03:53:23;;;;;;;33.67;22.27;;;6.00;99.90;;;;;;5054788;28;20025;-59
2022/12/03 03:55:49;;;;;;;34.38;23.17;;;6.00;99.90;;;;;;5054403;28;20021;-60
2022/12/03 03:58:15;;;;;;;34.45;21.90;;;6.00;99.90;;;;;;5054561;28;20490;-53
2022/12/03 04:00:45;;;;;;;36.70;23.27;;;6.00;99.90;;;;;;5035919;28;20036;-58
2022/12/03 04:03:11;;;;;;;32.42;21.95;;;6.00;99.90;;;;;;5054631;28;20029;-58
2022/12/03 04:05:37;;;;;;;41.38;24.85;;;6.00;99.90;;;;;;5054359;28;20550;-58
2022/12/03 04:08:03;;;;;;;33.97;22.38;;;6.00;99.90;;;;;;5054736;28;20056;-59
2022/12/03 04:13:13;;;;;;;32.13;21.33;;;6.00;99.90;;;;;;5054481;28;20481;-58
2022/12/03 04:15:39;;;;;;;36.92;21.73;;;6.00;99.90;;;;;;5054601;28;20033;-54
2022/12/03 04:20:49;;;;;;;28.05;19.73;;;5.80;99.90;;;;;;5054302;28;20683;-57
2022/12/03 04:23:15;;;;;;;28.10;19.50;;;5.90;99.90;;;;;;5054348;28;20037;-58
2022/12/03 04:36:54;;;;;;;30.38;20.30;;;5.70;99.90;;;;;;4973089;28;20041;-55
2022/12/03 04:39:20;;;;;;;32.33;23.00;;;5.60;99.90;;;;;;4971252;28;20034;-56
2022/12/03 04:41:46;;;;;;;33.58;23.85;;;5.60;99.90;;;;;;4971707;28;20158;-60
2022/12/03 04:46:56;;;;;;;33.65;24.05;;;5.70;99.90;;;;;;4971811;28;20067;-55
2022/12/03 04:49:22;;;;;;;33.28;23.25;;;5.70;99.90;;;;;;4971363;28;20050;-55
2022/12/03 04:51:48;;;;;;;36.88;25.10;;;5.50;99.90;;;;;;4971583;28;20070;-61
2022/12/03 04:54:14;;;;;;;34.25;23.30;;;5.40;99.90;;;;;;4971494;28;20062;-54
2022/12/03 04:56:40;;;;;;;37.70;25.20;;;5.20;99.90;;;;;;4971296;28;20027;-54
2022/12/03 04:59:06;;;;;;;40.22;26.13;;;5.00;99.90;;;;;;4971328;28;20043;-56
2022/12/03 05:01:31;;;;;;;34.78;23.02;;;5.00;99.90;;;;;;4971308;28;20114;-58
2022/12/03 05:03:57;;;;;;;39.13;25.23;;;5.20;99.90;;;;;;4962896;28;20038;-54
2022/12/03 05:06:23;;;;;;;36.10;21.98;;;5.30;99.90;;;;;;4951939;29;20031;-54
2022/12/03 05:08:48;;;;;;;123.90;28.38;;;5.30;99.90;;;;;;4952076;29;20118;-59
2022/12/03 05:11:14;;;;;;;94.07;29.05;;;5.20;99.90;;;;;;5004129;28;20036;-58
2022/12/03 05:13:40;;;;;;;86.72;32.10;;;4.70;99.90;;;;;;5032283;28;20037;-59
2022/12/03 05:16:06;;;;;;;55.25;28.65;;;4.50;99.90;;;;;;5032118;28;20440;-56
2022/12/03 05:18:31;;;;;;;69.20;35.97;;;4.50;99.90;;;;;;4981293;28;20037;-57
2022/12/03 05:20:57;;;;;;;64.18;31.85;;;4.70;99.90;;;;;;5032306;28;20036;-51
2022/12/03 05:23:23;;;;;;;50.33;27.85;;;4.90;99.90;;;;;;5031913;28;20041;-58
2022/12/03 05:25:49;;;;;;;153.80;34.75;;;5.00;99.90;;;;;;5032156;28;20393;-59
2022/12/03 05:28:15;;;;;;;67.00;28.20;;;4.70;99.90;;;;;;5032007;28;20171;-51
2022/12/03 05:30:41;;;;;;;67.63;25.95;;;4.90;99.90;;;;;;4997063;28;20044;-57
2022/12/03 05:33:06;;;;;;;52.22;25.35;;;5.00;99.90;;;;;;5032128;28;20108;-56
2022/12/03 05:35:32;;;;;;;51.60;25.83;;;5.00;99.90;;;;;;5031875;28;20033;-53
2022/12/03 05:37:58;;;;;;;44.03;26.83;;;4.90;99.90;;;;;;5032341;28;20026;-61
2022/12/03 05:40:24;;;;;;;48.30;30.50;;;4.40;99.90;;;;;;5031914;28;20040;-56
2022/12/03 05:42:52;;;;;;;42.97;28.88;;;4.60;99.90;;;;;;5031956;28;20094;-58
2022/12/03 05:45:19;;;;;;;39.92;24.88;;;4.50;99.90;;;;;;5031886;28;20022;-60
2022/12/03 05:47:44;;;;;;;34.45;24.73;;;4.30;99.90;;;;;;5031607;28;20057;-55
2022/12/03 05:50:10;;;;;;;35.83;25.70;;;4.20;99.90;;;;;;4981543;28;20077;-55
2022/12/03 05:52:36;;;;;;;41.60;26.23;;;4.10;99.90;;;;;;5035951;28;20457;-54
2022/12/03 05:55:02;;;;;;;43.55;27.40;;;4.00;99.90;;;;;;5035927;28;20032;-53
2022/12/03 05:57:28;;;;;;;38.55;24.95;;;3.70;99.90;;;;;;4984638;28;20033;-55
2022/12/03 05:59:53;;;;;;;36.65;24.10;;;3.60;99.90;;;;;;5035922;28;20029;-58
2022/12/03 06:02:19;;;;;;;39.65;25.08;;;3.50;99.90;;;;;;5000780;28;20041;-57
2022/12/03 06:04:45;;;;;;;34.20;24.75;;;3.70;99.90;;;;;;5035614;28;20048;-57
2022/12/03 06:07:11;;;;;;;40.13;27.23;;;3.80;99.90;;;;;;5053243;28;20091;-56
2022/12/03 06:09:36;;;;;;;39.05;28.05;;;4.20;99.90;;;;;;5055406;28;20098;-52
2022/12/03 06:12:03;;;;;;;64.40;43.13;;;4.40;99.90;;;;;;5020253;28;20069;-57
2022/12/03 06:14:30;;;;;;;66.50;45.20;;;4.20;99.90;;;;;;5055381;28;20037;-59
2022/12/03 06:16:56;;;;;;;45.22;31.83;;;4.00;99.90;;;;;;5055688;28;20090;-56
2022/12/03 06:19:22;;;;;;;46.08;32.72;;;4.20;99.90;;;;;;5055731;28;20100;-55
2022/12/03 06:21:48;;;;;;;46.33;31.83;;;4.30;99.90;;;;;;5055211;28;20021;-54
2022/12/03 06:24:13;;;;;;;48.83;32.05;;;4.60;99.90;;;;;;5055285;28;20040;-56
2022/12/03 06:26:39;;;;;;;88.25;46.88;;;4.70;99.90;;;;;;5055404;28;20050;-56
2022/12/03 06:29:05;;;;;;;69.93;43.05;;;4.70;99.90;;;;;;5055143;28;20074;-55
2022/12/03 06:31:30;;;;;;;53.67;35.63;;;4.40;99.90;;;;;;5055429;28;20025;-56
2022/12/03 06:33:56;;;;;;;48.08;34.00;;;4.40;99.90;;;;;;5055511;28;20025;-60
2022/12/03 06:36:22;;;;;;;46.25;32.88;;;4.40;99.90;;;;;;5037598;28;20446;-58
2022/12/03 06:38:47;;;;;;;40.92;31.20;;;4.50;99.90;;;;;;5004513;28;20033;-55
2022/12/03 06:41:13;;;;;;;38.80;28.23;;;4.70;99.90;;;;;;5056316;28;20121;-59
2022/12/03 06:43:39;;;;;;;36.97;28.00;;;5.10;99.90;;;;;;5056276;28;20481;-57
2022/12/03 06:46:04;;;;;;;38.92;29.80;;;5.40;99.90;;;;;;5055948;28;20448;-56
2022/12/03 06:48:30;;;;;;;45.90;30.00;;;5.60;99.90;;;;;;5055757;28;20102;-58
2022/12/03 06:50:56;;;;;;;43.65;30.77;;;5.40;99.90;;;;;;5055866;28;20032;-52
2022/12/03 06:53:21;;;;;;;43.55;30.38;;;5.40;99.90;;;;;;5055827;28;20100;-60
2022/12/03 06:55:47;;;;;;;35.30;27.25;;;;;;;;;;5055603;28;20124;-58
2022/12/03 06:58:13;;;;;;;41.53;29.35;;;6.00;99.90;;;;;;5055753;28;20028;-53
2022/12/03 07:00:39;;;;;;;40.78;30.77;;;6.00;99.90;;;;;;5003859;28;20114;-49
2022/12/03 07:03:05;;;;;;;38.08;29.67;;;;;;;;;;5055260;28;20369;-55
2022/12/03 07:05:30;;;;;;;36.47;27.35;;;6.30;99.90;;;;;;5055676;28;20036;-53
2022/12/03 07:07:56;;;;;;;35.65;26.98;;;6.30;99.90;;;;;;5055747;28;20029;-56
2022/12/03 07:10:22;;;;;;;33.15;25.65;;;6.30;99.90;;;;;;5055725;28;20029;-56
2022/12/03 07:12:48;;;;;;;40.15;27.60;;;5.70;99.90;;;;;;5055398;28;20057;-55
2022/12/03 07:15:13;;;;;;;39.13;26.65;;;5.50;99.90;;;;;;5055296;28;20392;-59
2022/12/03 07:17:39;;;;;;;39.92;28.13;;;5.10;99.90;;;;;;5055456;28;20036;-56
2022/12/03 07:20:06;;;;;;;33.63;25.27;;;5.10;99.90;;;;;;5055407;28;20025;-56
2022/12/03 07:22:32;;;;;;;34.90;26.05;;;5.60;99.90;;;;;;5003897;28;20080;-56
2022/12/03 07:24:57;;;;;;;32.03;24.15;;;5.90;99.90;;;;;;5020057;28;20099;-59
2022/12/03 07:27:23;;;;;;;34.08;23.38;;;5.90;99.90;;;;;;5055454;28;20108;-57
2022/12/03 07:29:49;;;;;;;33.40;24.25;;;6.50;99.90;;;;;;5054980;28;20028;-55
2022/12/03 07:32:15;;;;;;;29.55;22.88;;;;;;;;;;5055309;28;20025;-57
2022/12/03 07:34:40;;;;;;;32.28;26.10;;;8.10;99.90;;;;;;5055152;28;20028;-58
2022/12/03 07:37:06;;;;;;;27.85;23.27;;;9.00;99.90;;;;;;5003791;28;20404;-57
2022/12/03 07:39:32;;;;;;;40.35;29.90;;;9.50;99.90;;;;;;5019844;28;20061;-56
2022/12/03 07:41:58;;;;;;;37.50;26.52;;;8.90;99.90;;;;;;5019882;28;20037;-55
2022/12/03 07:44:23;;;;;;;31.02;24.58;;;9.00;99.90;;;;;;5054328;28;20653;-58
2022/12/03 07:46:49;;;;;;;33.40;24.63;;;8.50;99.90;;;;;;5054713;28;20056;-53
2022/12/03 07:49:15;;;;;;;33.75;23.63;;;7.40;99.90;;;;;;5054572;28;20123;-59
2022/12/03 07:51:41;;;;;;;38.08;23.45;;;;;;;;;;5054470;28;20067;-55
2022/12/03 07:54:07;;;;;;;43.22;27.08;;;6.30;99.90;;;;;;5055390;28;20390;-59
2022/12/03 07:56:33;;;;;;;44.75;26.33;;;5.80;99.90;;;;;;5054795;28;20032;-54
2022/12/03 07:58:59;;;;;;;47.83;26.88;;;5.50;99.90;;;;;;5054346;28;20787;-59
2022/12/03 08:01:24;;;;;;;45.35;27.52;;;5.40;99.90;;;;;;5054554;28;20032;-56
2022/12/03 08:03:50;;;;;;;64.32;29.02;;;5.60;99.90;;;;;;5054196;28;20040;-58
2022/12/03 08:06:16;;;;;;;58.67;31.23;;;5.50;99.90;;;;;;5054529;28;20032;-57
2022/12/03 08:08:42;;;;;;;82.47;32.50;;;5.60;99.90;;;;;;5003315;28;20043;-57
2022/12/03 08:11:13;;;;;;;53.42;32.42;;;5.80;99.90;;;;;;5054402;28;20052;-59
2022/12/03 08:13:39;;;;;;;56.43;33.37;;;6.60;99.90;;;;;;5053950;28;20116;-57
2022/12/03 08:16:14;;;;;;;63.72;28.70;;;6.60;99.90;;;;;;5054079;28;20305;-55
2022/12/03 08:18:40;;;;;;;55.95;31.70;;;6.60;99.90;;;;;;5054153;28;20031;-56
2022/12/03 08:21:10;;;;;;;63.13;30.13;;;7.00;99.90;;;;;;5054491;28;20021;-53
2022/12/03 08:23:36;;;;;;;78.00;30.48;;;6.40;99.90;;;;;;5012802;28;20144;-54
2022/12/03 08:26:26;;;;;;;63.75;29.35;;;6.20;99.90;;;;;;5053202;28;20111;-59
2022/12/03 08:28:52;;;;;;;81.82;34.40;;;5.60;99.90;;;;;;5052569;28;20048;-55
2022/12/03 08:31:24;;;;;;;51.38;32.10;;;5.20;99.90;;;;;;5050693;28;20056;-61
2022/12/03 08:34:10;;;;;;;66.07;35.92;;;5.80;99.90;;;;;;5053140;28;20064;-54
2022/12/03 08:36:36;;;;;;;90.40;30.00;;;5.50;99.90;;;;;;5011260;28;20435;-60
2022/12/03 08:39:15;;;;;;;54.08;29.02;;;5.60;99.90;;;;;;5010727;28;20030;-57
2022/12/03 08:44:28;;;;;;;56.50;30.92;;;6.20;99.90;;;;;;5010755;28;20048;-56
2022/12/03 08:46:54;;;;;;;57.97;28.60;;;6.80;99.90;;;;;;5011426;28;20096;-57
2022/12/03 08:49:21;;;;;;;50.83;31.00;;;7.10;99.90;;;;;;5011454;28;20054;-57
2022/12/03 08:51:47;;;;;;;53.00;30.92;;;7.80;99.90;;;;;;5023857;28;20467;-60
2022/12/03 08:54:18;;;;;;;51.05;30.73;;;8.50;99.90;;;;;;5011139;28;20033;-58
2022/12/03 08:56:44;;;;;;;42.80;28.30;;;9.70;99.90;;;;;;5004296;28;20034;-56
2022/12/03 08:59:29;;;;;;;54.40;32.17;;;10.20;99.90;;;;;;5010911;28;20036;-58
2022/12/03 09:01:57;;;;;;;55.88;35.10;;;10.70;99.90;;;;;;5011518;28;20033;-55
2022/12/03 09:04:37;;;;;;;54.63;35.08;;;10.40;99.90;;;;;;5009169;28;20045;-57
2022/12/03 09:07:03;;;;;;;46.50;29.02;;;10.00;99.90;;;;;;5018321;28;20029;-55
2022/12/03 09:09:29;;;;;;;42.03;27.38;;;10.10;99.90;;;;;;5052869;28;20025;-60
2022/12/03 09:11:55;;;;;;;44.08;30.08;;;10.30;99.90;;;;;;5051084;28;20532;-56
2022/12/03 09:14:21;;;;;;;50.05;32.95;;;;;;;;;;5033051;28;20041;-58
2022/12/03 09:16:49;;;;;;;49.28;35.40;;;11.90;99.90;;;;;;5051711;28;20145;-59
2022/12/03 09:19:14;;;;;;;53.92;33.88;;;12.60;99.90;;;;;;5016232;28;20554;-55
2022/12/03 09:21:40;;;;;;;53.95;36.97;;;11.40;99.90;;;;;;5052121;28;20029;-57
2022/12/03 09:24:06;;;;;;;56.47;36.22;;;11.60;99.90;;;;;;5051687;28;20057;-55
2022/12/03 09:26:32;;;;;;;57.92;37.38;;;10.80;99.90;;;;;;5052037;28;20032;-59
2022/12/03 09:28:57;;;;;;;49.03;33.15;;;11.80;99.90;;;;;;5052077;28;20033;-59
2022/12/03 09:31:23;;;;;;;52.83;36.47;;;11.60;99.90;;;;;;5052074;28;20064;-55
2022/12/03 09:33:49;;;;;;;48.97;33.90;;;12.70;99.90;;;;;;5051941;28;20051;-57
2022/12/03 09:36:15;;;;;;;47.28;31.27;;;11.50;99.90;;;;;;5016645;28;20485;-51
2022/12/03 09:38:41;;;;;;;48.95;31.73;;;11.30;99.90;;;;;;5050760;28;20544;-52
2022/12/03 09:41:08;;;;;;;48.80;30.40;;;11.20;99.90;;;;;;5051208;28;20029;-53
2022/12/03 09:43:34;;;;;;;43.65;31.88;;;11.10;99.90;;;;;;5051948;28;20107;-52
2022/12/03 09:46:00;;;;;;;51.40;33.58;;;10.80;99.90;;;;;;5051605;28;20631;-52
2022/12/03 09:48:26;;;;;;;50.75;32.63;;;10.80;99.90;;;;;;5051522;28;20064;-52
2022/12/03 09:50:52;;;;;;;51.05;31.92;;;10.70;99.90;;;;;;5051755;28;20029;-52
2022/12/03 09:53:21;;;;;;;42.97;30.42;;;10.30;99.90;;;;;;5052214;28;20036;-52
2022/12/03 09:55:47;;;;;;;33.97;25.95;;;11.20;99.90;;;;;;5052049;28;20061;-52
2022/12/03 09:58:16;;;;;;;38.30;28.15;;;11.80;99.90;;;;;;5051622;28;20021;-52
2022/12/03 10:00:45;;;;;;;54.70;39.78;;;;;;;;;;5051692;28;20025;-52
2022/12/03 10:03:12;;;;;;;54.88;40.17;;;;;;;;;;5032915;28;20449;-52
2022/12/03 10:05:39;;;;;;;56.30;41.63;;;13.90;99.90;;;;;;5051769;28;20381;-55
2022/12/03 10:08:11;;;;;;;48.45;31.25;;;14.30;99.90;;;;;;5051700;28;20032;-48
2022/12/03 10:10:40;;;;;;;45.55;35.30;;;13.70;99.90;;;;;;5016284;28;20090;-49
2022/12/03 10:13:11;;;;;;;43.15;31.20;;;13.70;99.90;;;;;;5051640;28;20029;-49
2022/12/03 10:15:37;;;;;;;43.75;31.90;;;13.50;99.90;;;;;;5032833;28;20043;-49
2022/12/03 10:18:18;;;;;;;43.88;33.78;;;14.00;99.90;;;;;;5051612;28;20033;-48
2022/12/03 10:20:44;;;;;;;38.72;27.88;;;;;;;;;;5051479;28;20040;-48
2022/12/03 10:23:18;;;;;;;42.67;29.95;;;;;;;;;;5051436;28;20040;-49
2022/12/03 10:25:53;;;;;;;36.03;27.50;;;14.30;99.90;;;;;;5051363;28;20063;-49
2022/12/03 10:28:39;;;;;;;37.42;27.17;;;14.80;99.90;;;;;;5016231;28;20067;-49
2022/12/03 10:31:06;;;;;;;40.70;29.13;;;;;;;;;;5051645;28;20372;-49
2022/12/03 10:33:34;;;;;;;40.45;29.35;;;;;;;;;;5051346;28;20049;-49
2022/12/03 10:36:19;;;;;;;40.20;29.80;;;;;;;;;;5051756;28;20033;-50
2022/12/03 10:38:45;;;;;;;44.47;32.45;;;15.60;99.90;;;;;;5054995;28;20041;-49
2022/12/03 10:41:27;;;;;;;51.03;37.05;;;16.20;99.90;;;;;;5019506;28;20045;-49
2022/12/03 10:43:53;;;;;;;37.40;29.52;;;16.40;99.90;;;;;;5036599;28;20269;-49
2022/12/03 10:46:22;;;;;;;41.25;28.45;;;16.40;99.90;;;;;;5003394;28;20025;-49
2022/12/03 10:49:13;;;;;;;44.13;31.85;;;16.40;99.90;;;;;;5019464;28;20071;-48
2022/12/03 10:51:39;;;;;;;42.80;29.83;;;15.80;99.90;;;;;;5054865;28;20029;-48
2022/12/03 10:54:19;;;;;;;39.30;31.25;;;16.10;99.90;;;;;;5054971;28;20273;-48
2022/12/03 10:56:46;;;;;;;32.85;24.40;;;16.10;99.90;;;;;;5054554;28;20480;-49
2022/12/03 10:59:23;;;;;;;40.50;29.85;;;16.20;99.90;;;;;;5051631;28;20032;-49
2022/12/03 11:01:49;;;;;;;37.38;26.50;;;16.20;99.90;;;;;;5019301;28;20059;-49
2022/12/03 11:04:21;;;;;;;30.83;24.42;;;16.50;99.90;;;;;;5054899;28;20033;-49
2022/12/03 11:06:48;;;;;;;37.85;29.48;;;15.40;99.90;;;;;;5035697;28;20036;-48
2022/12/03 11:09:34;;;;;;;30.42;23.90;;;15.70;99.90;;;;;;5019314;28;20510;-49
2022/12/03 11:12:16;;;;;;;39.60;29.52;;;14.80;99.90;;;;;;5020014;28;20048;-48
2022/12/03 11:14:51;;;;;;;41.10;30.10;;;14.70;99.90;;;;;;5055247;28;20048;-49
2022/12/03 11:17:39;;;;;;;30.60;25.23;;;14.40;99.90;;;;;;5055325;28;20033;-49
2022/12/03 11:20:23;;;;;;;46.92;33.47;;;14.80;99.90;;;;;;5055549;28;20025;-49
2022/12/03 11:22:54;;;;;;;41.60;30.80;;;14.70;99.90;;;;;;5055031;28;20572;-48
2022/12/03 11:25:26;;;;;;;31.63;25.33;;;;;;;;;;5055201;28;20384;-49
2022/12/03 11:28:10;;;;;;;45.80;32.03;;;14.50;99.90;;;;;;5055342;28;20032;-49
2022/12/03 11:30:52;;;;;;;40.00;30.38;;;14.00;99.90;;;;;;5054987;28;20029;-48
2022/12/03 11:33:22;;;;;;;54.43;37.70;;;14.40;99.90;;;;;;5055198;28;20052;-49
2022/12/03 11:36:10;;;;;;;49.63;33.35;;;14.80;99.90;;;;;;5055175;28;20079;-49
2022/12/03 11:38:36;;;;;;;38.15;27.13;;;15.60;99.90;;;;;;5054963;28;20025;-48
2022/12/03 11:42:00;;;;;;;34.75;26.45;;;16.10;99.90;;;;;;5037071;28;20048;-49
2022/12/03 11:44:29;;;;;;;39.58;28.63;;;15.90;99.90;;;;;;4973911;28;20043;-48
2022/12/03 11:46:56;;;;;;;39.72;29.98;;;16.20;99.90;;;;;;4973795;28;20134;-48
2022/12/03 11:49:32;;;;;;;45.85;35.28;;;15.70;99.90;;;;;;4973824;28;20529;-51
2022/12/03 11:52:01;;;;;;;34.88;25.67;;;15.20;99.90;;;;;;4939766;28;20073;-55
2022/12/03 11:54:27;;;;;;;39.70;28.70;;;15.60;99.90;;;;;;4973871;28;20038;-54
2022/12/03 11:56:54;;;;;;;32.83;24.98;;;15.10;99.90;;;;;;4973169;28;20023;-52
2022/12/03 11:59:21;;;;;;;40.83;27.50;;;15.50;99.90;;;;;;4973776;28;20042;-57
2022/12/03 12:01:47;;;;;;;41.65;31.95;;;;;;;;;;4973701;28;20049;-57
2022/12/03 12:04:31;;;;;;;43.83;31.15;;;;;;;;;;4973498;28;20133;-54
2022/12/03 12:06:56;;;;;;;33.13;25.13;;;13.40;99.90;;;;;;4973769;28;20204;-62
2022/12/03 12:09:51;;;;;;;38.38;26.00;;;13.60;99.90;;;;;;4957714;28;20134;-61
2022/12/03 12:12:28;;;;;;;35.67;24.67;;;13.60;99.90;;;;;;4973564;28;20074;-59
2022/12/03 12:14:54;;;;;;;38.15;26.15;;;13.60;99.90;;;;;;4981796;28;20573;-60
2022/12/03 12:17:34;;;;;;;42.47;29.77;;;13.70;99.90;;;;;;5054177;28;20104;-60
2022/12/03 12:20:25;;;;;;;36.95;25.45;;;13.60;99.90;;;;;;5054036;28;20033;-59
2022/12/03 12:22:54;;;;;;;36.53;25.87;;;13.40;99.90;;;;;;5053971;28;20354;-63
2022/12/03 12:25:32;;;;;;;36.83;25.98;;;13.70;99.90;;;;;;5054509;28;20764;-60
2022/12/03 12:27:58;;;;;;;35.13;25.42;;;13.70;99.90;;;;;;5053897;28;20047;-52
2022/12/03 12:30:23;;;;;;;37.67;24.95;;;13.70;99.90;;;;;;5053957;28;20552;-52
2022/12/03 12:33:21;;;;;;;34.97;25.77;;;13.70;99.90;;;;;;5053662;28;20029;-55
2022/12/03 12:35:47;;;;;;;31.27;24.60;;;13.90;99.90;;;;;;4953600;29;20047;-54
2022/12/03 12:38:18;;;;;;;36.97;25.63;;;14.20;99.90;;;;;;4953806;29;20031;-58
2022/12/03 12:40:48;;;;;;;35.60;24.45;;;14.50;99.90;;;;;;4953452;29;20094;-57
2022/12/03 12:43:25;;;;;;;33.92;25.48;;;14.30;99.90;;;;;;4953477;29;20047;-56
2022/12/03 12:45:55;;;;;;;35.42;25.45;;;14.50;99.90;;;;;;4953613;29;20040;-57
2022/12/03 12:48:29;;;;;;;34.17;24.80;;;14.20;99.90;;;;;;4953393;29;20058;-56
2022/12/03 12:51:10;;;;;;;34.25;24.73;;;13.70;99.90;;;;;;4953385;29;20507;-57
2022/12/03 12:53:37;;;;;;;31.85;23.92;;;13.70;99.90;;;;;;4953559;29;20038;-52
2022/12/03 12:56:21;;;;;;;31.38;22.65;;;13.80;99.90;;;;;;4951336;29;20094;-49
2022/12/03 12:59:28;;;;;;;30.50;23.58;;;13.80;99.90;;;;;;4876452;29;20048;-47
2022/12/03 13:01:54;;;;;;;31.50;23.70;;;13.70;99.90;;;;;;4875532;29;20127;-54
2022/12/03 13:04:22;;;;;;;32.85;23.65;;;14.00;99.90;;;;;;4846474;29;20044;-55
2022/12/03 13:06:51;;;;;;;33.30;24.33;;;14.40;99.90;;;;;;4877316;29;20074;-54
2022/12/03 13:09:20;;;;;;;33.38;23.95;;;14.20;99.90;;;;;;4877318;29;20039;-54
2022/12/03 13:11:52;;;;;;;35.90;24.70;;;13.90;99.90;;;;;;4902106;29;20396;-56
2022/12/03 13:14:25;;;;;;;45.67;29.92;;;14.10;99.90;;;;;;4936719;29;20534;-55